Portada
METAR-TAF:

METAR-TAF

Aeropuertos :

Nador, Marruecos

Aeropuerto Internacional de Nador

latitud: 34-59-20N, longitud: 003-01-42W, altitud: 175 m

Observación

El informe se hizo hace 22 minutos, a las 18:00 UTC
Viento 12 kt del este-noreste
Temperatura 22°C
Humedad 73%
Presión 1019 hPa
Visibilidad 10 km o más
Escasas nubes a una altura de 1300 ft
Nubes dispersas a una altura de 1600 ft

METAR: GMMW 231800Z 06012KT 9999 FEW013 SCT016 22/17 Q1019 NOSIG

Hora: 19:22 (18:22 UTC)

Pronóstico

El informe se hizo hace 1 hora y 22 minutos, a las 17:00 UTC
Pronóstico válido del 23 a las 18 UTC al 24 a las 24 UTC
Viento 12 kt del noreste
Visibilidad 10 km o más
Escasas nubes a una altura de 1600 ft
Nubes dispersas a una altura de 2300 ft
Probabilidad 30%
del 23 a las 23 UTC al 24 a las 06 UTC
Viento 2 kt con dirección variable
Visibilidad: 4000 m
neblina

TAF: GMMW 231700Z 2318/2424 05012KT 9999 FEW016 SCT023 PROB30 2323/2406 VRB02KT 4000 BR

Observaciones y pronósticos meteorológicos de más de 4000 aeropuertos (mensajes METAR y TAF).

Los puntos amarillos y rojos representan las estaciones disponibles.

Ponga el ratón en el punto deseado para ver el nombre de la estación.

Haga clic para ver las observaciones y los pronósticos meteorológicos.

Para cambiar el mapa : haga clic en los botones verdes con una cruz de color negro para hacer un zoom, en el botón verde con un guión para alejar o en las flechas verdes para mapas adyacentes.


METAR-TAF: